Time;durP1;ratioP1;P1;durP2;ratioP2;P2;SDS_P1;SDS_P2;PMS_P1;PMS_P2;Temp;Humidity;BMP_temperature;BMP_pressure;BME280_temperature;BME280_humidity;BME280_pressure;Samples;Min_cycle;Max_cycle;Signal;HPM_P1;HPM_P2
2020/12/24 00:02:07;;;;;;;0.90;0.70;;;10.80;99.90;;;;;;5036497;28;20660;-92
2020/12/24 00:04:33;;;;;;;0.80;0.50;;;10.80;99.90;;;;;;5031422;28;20653;-90
2020/12/24 00:07:00;;;;;;;0.60;0.40;;;10.80;99.90;;;;;;5030862;28;20670;-91
2020/12/24 00:09:27;;;;;;;0.60;0.50;;;10.90;99.90;;;;;;5032580;28;20700;-92
2020/12/24 00:11:55;;;;;;;0.83;0.40;;;10.90;99.90;;;;;;5027533;28;20631;-91
2020/12/24 00:14:22;;;;;;;1.93;0.50;;;10.90;99.90;;;;;;5033729;28;20627;-91
2020/12/24 00:16:49;;;;;;;0.67;0.43;;;10.90;99.90;;;;;;5030263;28;20756;-92
2020/12/24 00:19:16;;;;;;;1.13;0.50;;;10.90;99.90;;;;;;5030111;28;20693;-92
2020/12/24 00:21:43;;;;;;;0.50;0.40;;;10.90;99.90;;;;;;5031013;28;21177;-91
2020/12/24 00:24:09;;;;;;;1.87;0.50;;;10.90;99.90;;;;;;5032653;28;21359;-91
2020/12/24 00:26:36;;;;;;;0.80;0.57;;;10.90;99.90;;;;;;5033998;28;20739;-92
2020/12/24 00:29:06;;;;;;;3.13;0.60;;;11.00;99.90;;;;;;5032360;28;20645;-92
2020/12/24 00:31:33;;;;;;;1.10;0.50;;;11.00;99.90;;;;;;5037690;28;20658;-91
2020/12/24 00:34:01;;;;;;;0.60;0.43;;;11.00;99.90;;;;;;5031673;28;20665;-92
2020/12/24 00:36:27;;;;;;;1.50;0.53;;;11.00;99.90;;;;;;5030835;28;21014;-91
2020/12/24 00:38:54;;;;;;;1.03;0.50;;;11.10;99.90;;;;;;5034694;28;20622;-91
2020/12/24 00:41:20;;;;;;;0.80;0.50;;;11.00;99.90;;;;;;5032120;28;20737;-91
2020/12/24 00:43:47;;;;;;;1.17;0.43;;;11.00;99.90;;;;;;5031436;28;20644;-92
2020/12/24 00:46:13;;;;;;;1.07;0.50;;;11.00;99.90;;;;;;5030237;28;20666;-90
2020/12/24 00:48:40;;;;;;;1.10;0.40;;;11.00;99.90;;;;;;5033079;28;20644;-92
2020/12/24 00:51:07;;;;;;;0.57;0.33;;;11.00;99.90;;;;;;5039721;28;20638;-92
2020/12/24 00:53:34;;;;;;;2.10;0.63;;;11.00;99.90;;;;;;5034013;28;20628;-92
2020/12/24 00:56:01;;;;;;;1.00;0.50;;;11.00;99.90;;;;;;5030273;28;20715;-92
2020/12/24 00:58:28;;;;;;;0.70;0.30;;;11.00;99.90;;;;;;5034917;28;22584;-92
2020/12/24 01:00:54;;;;;;;1.00;0.60;;;11.00;99.90;;;;;;5032340;28;20686;-92
2020/12/24 01:03:21;;;;;;;1.07;0.40;;;10.90;99.90;;;;;;5036392;28;21246;-92
2020/12/24 01:05:47;;;;;;;1.00;0.40;;;10.90;99.90;;;;;;5034615;28;20662;-92
2020/12/24 01:08:16;;;;;;;1.73;0.80;;;10.90;99.90;;;;;;5032268;28;21204;-92
2020/12/24 01:10:43;;;;;;;0.80;0.50;;;10.80;99.90;;;;;;5043397;28;20663;-91
2020/12/24 01:13:09;;;;;;;1.23;0.53;;;10.80;99.90;;;;;;5043045;28;20658;-93
2020/12/24 01:15:36;;;;;;;2.77;0.60;;;10.90;99.90;;;;;;5040598;28;20635;-92
2020/12/24 01:18:02;;;;;;;1.27;0.47;;;10.80;99.90;;;;;;5037033;28;20631;-92
2020/12/24 01:20:29;;;;;;;2.37;0.47;;;10.70;99.90;;;;;;5038020;28;20712;-93
2020/12/24 01:22:58;;;;;;;1.67;0.50;;;10.50;99.90;;;;;;5038490;28;21039;-93
2020/12/24 01:25:33;;;;;;;1.70;0.53;;;10.40;99.90;;;;;;5040145;28;20640;-93
2020/12/24 01:28:00;;;;;;;0.60;0.40;;;10.30;99.90;;;;;;5044737;28;20635;-92
2020/12/24 01:30:28;;;;;;;0.97;0.63;;;10.10;99.90;;;;;;5041879;28;20662;-92
2020/12/24 01:32:54;;;;;;;2.10;0.57;;;10.10;99.90;;;;;;5044936;28;20640;-92
2020/12/24 01:35:21;;;;;;;0.70;0.50;;;10.00;99.90;;;;;;5049414;28;20638;-91
2020/12/24 01:37:51;;;;;;;1.93;0.60;;;9.90;99.90;;;;;;5057552;28;20648;-92
2020/12/24 01:40:18;;;;;;;1.57;0.70;;;9.90;99.90;;;;;;5049144;28;20654;-93
2020/12/24 01:42:47;;;;;;;0.60;0.40;;;10.00;99.90;;;;;;5047390;28;20650;-93
2020/12/24 01:45:14;;;;;;;0.83;0.60;;;9.90;99.90;;;;;;5046458;28;20681;-90
2020/12/24 01:47:41;;;;;;;2.93;0.63;;;9.80;99.90;;;;;;5045322;28;20756;-92
2020/12/24 01:50:08;;;;;;;2.20;0.73;;;9.90;99.90;;;;;;5044091;28;20670;-91
2020/12/24 01:52:37;;;;;;;2.40;0.73;;;9.90;99.90;;;;;;5033311;28;21011;-92
2020/12/24 01:55:06;;;;;;;0.67;0.40;;;9.80;99.90;;;;;;5034219;28;20636;-92
2020/12/24 01:57:33;;;;;;;0.90;0.53;;;9.80;99.90;;;;;;5033678;28;20626;-93
2020/12/24 02:00:11;;;;;;;0.70;0.67;;;9.90;99.90;;;;;;5046278;28;20661;-92
2020/12/24 02:02:38;;;;;;;0.93;0.57;;;9.80;99.90;;;;;;5042167;28;20708;-91
2020/12/24 02:05:06;;;;;;;0.60;0.50;;;9.80;99.90;;;;;;5043458;28;20628;-92
2020/12/24 02:07:32;;;;;;;0.90;0.50;;;9.80;99.90;;;;;;5039845;28;20693;-91
2020/12/24 02:10:02;;;;;;;1.90;0.50;;;9.80;99.90;;;;;;5034293;28;20666;-91
2020/12/24 02:12:29;;;;;;;1.33;0.60;;;9.80;99.90;;;;;;5038770;28;20649;-91
2020/12/24 02:14:55;;;;;;;1.43;0.60;;;9.90;99.90;;;;;;5037228;28;20707;-91
2020/12/24 02:17:28;;;;;;;2.20;0.50;;;9.90;99.90;;;;;;5051676;28;20691;-93
2020/12/24 02:19:55;;;;;;;2.67;0.50;;;9.90;99.90;;;;;;5034246;28;20660;-91
2020/12/24 02:22:22;;;;;;;1.53;0.57;;;10.00;99.90;;;;;;5040555;28;20673;-93
2020/12/24 02:24:51;;;;;;;0.67;0.40;;;9.90;99.90;;;;;;5037466;28;20765;-92
2020/12/24 02:27:17;;;;;;;0.97;0.60;;;9.90;99.90;;;;;;5038343;28;20668;-92
2020/12/24 02:29:44;;;;;;;3.03;0.60;;;9.90;99.90;;;;;;5033995;28;20674;-93
2020/12/24 02:32:10;;;;;;;2.30;0.60;;;9.80;99.90;;;;;;5027864;28;20681;-91
2020/12/24 02:34:37;;;;;;;0.67;0.57;;;9.90;99.90;;;;;;5029208;28;21083;-91
2020/12/24 02:37:03;;;;;;;0.70;0.47;;;9.80;99.90;;;;;;5033629;28;21080;-91
2020/12/24 02:39:33;;;;;;;0.80;0.40;;;9.80;99.90;;;;;;5033883;28;20725;-91
2020/12/24 02:42:05;;;;;;;2.10;0.53;;;9.80;99.90;;;;;;5032966;28;20641;-91
2020/12/24 02:44:31;;;;;;;1.20;0.60;;;9.80;99.90;;;;;;5033140;28;20612;-91
2020/12/24 02:46:57;;;;;;;0.50;0.30;;;9.70;99.90;;;;;;5038850;28;20660;-90
2020/12/24 02:49:24;;;;;;;1.43;1.10;;;9.70;99.90;;;;;;5032954;28;20609;-91
2020/12/24 02:51:50;;;;;;;1.57;0.40;;;9.60;99.90;;;;;;5030138;28;20620;-90
2020/12/24 02:54:17;;;;;;;0.80;0.80;;;9.60;99.90;;;;;;5041528;28;20794;-90
2020/12/24 02:56:44;;;;;;;1.40;0.40;;;9.60;99.90;;;;;;5034825;28;20638;-90
2020/12/24 02:59:10;;;;;;;2.90;0.63;;;9.40;99.90;;;;;;5035552;28;20612;-89
2020/12/24 03:01:38;;;;;;;1.20;0.80;;;9.40;99.90;;;;;;5043377;28;20630;-90
2020/12/24 03:04:04;;;;;;;1.57;0.47;;;9.40;99.90;;;;;;5054396;28;20645;-90
2020/12/24 03:06:30;;;;;;;0.73;0.73;;;9.40;99.90;;;;;;5057837;28;20668;-92
2020/12/24 03:08:57;;;;;;;2.30;0.40;;;9.30;99.90;;;;;;5053651;28;20704;-90
2020/12/24 03:11:23;;;;;;;2.43;0.70;;;9.30;99.90;;;;;;5054055;28;20639;-90
2020/12/24 03:13:51;;;;;;;2.13;0.67;;;9.20;99.90;;;;;;5054618;28;20648;-91
2020/12/24 03:16:24;;;;;;;1.53;0.40;;;9.20;99.90;;;;;;5057266;28;20702;-90
2020/12/24 03:18:53;;;;;;;2.93;0.97;;;9.20;99.90;;;;;;5054981;28;20667;-90
2020/12/24 03:21:23;;;;;;;0.77;0.40;;;9.20;99.90;;;;;;5060969;28;20628;-91
2020/12/24 03:23:50;;;;;;;2.80;0.60;;;9.20;99.90;;;;;;5055394;28;20655;-91
2020/12/24 03:26:21;;;;;;;2.20;0.40;;;9.20;99.90;;;;;;5051270;28;20665;-90
2020/12/24 03:28:50;;;;;;;1.57;0.40;;;9.10;99.90;;;;;;5047451;28;20624;-91
2020/12/24 03:31:25;;;;;;;1.70;0.47;;;9.10;99.90;;;;;;5044894;28;20634;-92
2020/12/24 03:34:01;;;;;;;1.60;0.60;;;9.20;99.90;;;;;;5044195;28;20650;-92
2020/12/24 03:36:28;;;;;;;0.50;0.40;;;9.10;99.90;;;;;;5038269;28;21165;-91
2020/12/24 03:38:56;;;;;;;1.70;0.60;;;9.00;99.90;;;;;;5036171;28;20656;-90
2020/12/24 03:41:22;;;;;;;2.30;0.70;;;9.00;99.90;;;;;;5043695;28;20696;-93
2020/12/24 03:43:49;;;;;;;1.27;0.40;;;9.00;99.90;;;;;;5050679;28;20662;-91
2020/12/24 03:46:15;;;;;;;0.80;0.40;;;8.90;99.90;;;;;;5048150;28;20739;-92
2020/12/24 03:48:47;;;;;;;0.63;0.40;;;8.90;99.90;;;;;;5039446;28;20643;-92
2020/12/24 03:51:19;;;;;;;1.20;0.50;;;8.90;99.90;;;;;;5030642;28;20714;-91
2020/12/24 03:53:46;;;;;;;0.60;0.33;;;8.80;99.90;;;;;;5028815;28;20661;-89
2020/12/24 03:56:14;;;;;;;1.03;0.43;;;8.80;99.90;;;;;;5032634;28;20619;-90
2020/12/24 03:58:40;;;;;;;1.53;0.50;;;8.80;99.90;;;;;;5037250;28;20673;-90
2020/12/24 04:01:09;;;;;;;0.57;0.43;;;8.70;99.90;;;;;;5041416;28;20650;-90
2020/12/24 04:03:36;;;;;;;0.77;0.60;;;8.70;99.90;;;;;;5035102;28;20674;-90
2020/12/24 04:06:04;;;;;;;1.00;0.63;;;8.60;99.90;;;;;;5039210;28;20659;-90
2020/12/24 04:08:31;;;;;;;1.77;1.67;;;8.60;99.90;;;;;;5031882;28;20645;-91
2020/12/24 04:10:57;;;;;;;1.90;0.67;;;8.60;99.90;;;;;;5031271;28;20634;-91
2020/12/24 04:13:24;;;;;;;1.33;0.60;;;8.60;99.90;;;;;;5048554;22;20685;-91
2020/12/24 04:15:50;;;;;;;2.70;0.80;;;8.60;99.90;;;;;;5045744;28;20620;-90
2020/12/24 04:18:17;;;;;;;3.20;0.70;;;8.60;99.90;;;;;;5046723;28;20639;-91
2020/12/24 04:20:45;;;;;;;2.00;1.27;;;8.60;99.90;;;;;;5044337;28;20649;-91
2020/12/24 04:23:12;;;;;;;0.60;0.50;;;8.60;99.90;;;;;;5040714;28;21171;-91
2020/12/24 04:25:38;;;;;;;1.20;0.60;;;8.60;99.90;;;;;;5036117;28;20633;-91
2020/12/24 04:28:06;;;;;;;1.10;0.60;;;8.60;99.90;;;;;;5030506;28;20645;-92
2020/12/24 04:30:43;;;;;;;1.83;0.40;;;8.60;99.90;;;;;;5037242;28;20627;-90
2020/12/24 04:33:14;;;;;;;2.37;1.03;;;8.60;99.90;;;;;;5038510;28;20658;-91
2020/12/24 04:35:41;;;;;;;0.77;0.50;;;8.60;99.90;;;;;;5036488;28;20650;-92
2020/12/24 04:38:10;;;;;;;1.00;0.90;;;8.70;99.90;;;;;;5033876;28;20649;-91
2020/12/24 04:40:37;;;;;;;1.70;0.60;;;8.60;99.90;;;;;;5027154;28;20639;-91
2020/12/24 04:43:06;;;;;;;0.70;0.60;;;8.70;99.90;;;;;;5029337;28;20697;-90
2020/12/24 04:45:36;;;;;;;1.10;0.60;;;8.60;99.90;;;;;;5035277;28;21192;-92
2020/12/24 04:48:05;;;;;;;0.77;0.40;;;8.60;99.90;;;;;;5030034;28;20603;-89
2020/12/24 04:50:37;;;;;;;0.97;0.50;;;8.60;99.90;;;;;;5022284;28;20962;-91
2020/12/24 04:53:09;;;;;;;0.60;0.40;;;8.50;99.90;;;;;;5022871;28;21325;-89
2020/12/24 04:55:38;;;;;;;0.80;0.40;;;8.60;99.90;;;;;;5025579;28;20710;-90
2020/12/24 04:58:06;;;;;;;2.17;0.50;;;8.60;99.90;;;;;;5036357;28;20628;-89
2020/12/24 05:00:33;;;;;;;0.60;0.30;;;8.60;99.90;;;;;;5044449;28;20695;-90
2020/12/24 05:03:04;;;;;;;1.43;0.40;;;8.60;99.90;;;;;;5041791;28;20659;-92
2020/12/24 05:05:32;;;;;;;0.87;0.80;;;8.50;99.90;;;;;;5029544;28;20643;-90
2020/12/24 05:08:03;;;;;;;1.10;0.40;;;8.50;99.90;;;;;;5037124;28;21142;-91
2020/12/24 05:10:30;;;;;;;1.03;0.40;;;8.40;99.90;;;;;;5052102;28;20650;-90
2020/12/24 05:12:57;;;;;;;1.07;0.47;;;8.40;99.90;;;;;;5034855;28;20663;-91
2020/12/24 05:15:31;;;;;;;1.80;0.60;;;8.40;99.90;;;;;;5033751;28;20644;-91
2020/12/24 05:18:14;;;;;;;0.93;0.40;;;8.30;99.90;;;;;;5030294;28;20621;-91
2020/12/24 05:20:42;;;;;;;0.83;0.53;;;8.30;99.90;;;;;;5030524;28;20695;-92
2020/12/24 05:23:14;;;;;;;2.37;0.60;;;8.20;99.90;;;;;;5037123;28;20643;-92
2020/12/24 05:25:44;;;;;;;1.20;0.40;;;8.20;99.90;;;;;;5042793;28;20614;-91
2020/12/24 05:28:20;;;;;;;2.17;0.50;;;8.10;99.90;;;;;;5023136;28;20626;-91
2020/12/24 05:30:46;;;;;;;1.40;0.60;;;8.10;99.90;;;;;;5041893;28;20656;-91
2020/12/24 05:33:26;;;;;;;1.17;0.40;;;8.10;99.90;;;;;;5030809;28;20663;-90
2020/12/24 05:36:14;;;;;;;0.50;0.40;;;8.10;99.90;;;;;;5042108;28;20622;-88
2020/12/24 05:38:41;;;;;;;2.23;0.53;;;8.00;99.90;;;;;;5039713;28;21179;-90
2020/12/24 05:41:33;;;;;;;0.87;0.60;;;7.90;99.90;;;;;;5047685;28;20718;-90
2020/12/24 05:44:07;;;;;;;2.60;0.80;;;7.90;99.90;;;;;;5034937;28;20648;-91
2020/12/24 05:46:45;;;;;;;0.90;0.60;;;7.90;99.90;;;;;;5041820;28;20660;-91
2020/12/24 05:49:13;;;;;;;1.53;0.70;;;7.90;99.90;;;;;;5033180;28;20640;-91
2020/12/24 05:51:39;;;;;;;2.30;0.70;;;7.80;99.90;;;;;;5032231;28;20624;-91
2020/12/24 05:54:06;;;;;;;2.80;0.60;;;7.80;99.90;;;;;;5042858;28;20672;-91
2020/12/24 05:56:37;;;;;;;1.00;0.47;;;7.80;99.90;;;;;;5036697;28;20623;-90
2020/12/24 05:59:05;;;;;;;2.07;1.00;;;7.90;99.90;;;;;;5035421;28;20633;-91
2020/12/24 06:01:39;;;;;;;0.90;0.67;;;7.90;99.90;;;;;;5032351;28;20629;-90
2020/12/24 06:04:08;;;;;;;2.73;1.50;;;7.90;99.90;;;;;;5031497;28;20667;-90
2020/12/24 06:06:46;;;;;;;4.60;1.90;;;7.90;99.90;;;;;;5040453;28;20676;-89
2020/12/24 06:09:20;;;;;;;2.70;1.60;;;7.80;99.90;;;;;;5036226;28;21161;-90
2020/12/24 06:11:48;;;;;;;2.80;1.50;;;7.70;99.90;;;;;;5035638;28;20633;-91
2020/12/24 06:14:32;;;;;;;4.03;1.30;;;7.60;99.90;;;;;;5038741;28;20768;-90
2020/12/24 06:17:07;;;;;;;2.00;1.17;;;7.60;99.90;;;;;;5033461;28;20673;-89
2020/12/24 06:19:40;;;;;;;2.20;1.20;;;7.50;99.90;;;;;;5037454;28;22069;-90
2020/12/24 06:22:09;;;;;;;3.43;1.07;;;7.40;99.90;;;;;;5034353;28;20669;-90
2020/12/24 06:24:40;;;;;;;2.67;0.77;;;7.50;99.90;;;;;;5029324;28;20640;-91
2020/12/24 06:27:32;;;;;;;2.20;0.70;;;7.60;99.90;;;;;;5039131;28;21216;-91
2020/12/24 06:30:04;;;;;;;3.30;0.90;;;7.60;99.90;;;;;;5033689;28;20599;-91
2020/12/24 06:32:34;;;;;;;3.90;1.20;;;7.70;99.90;;;;;;5033837;28;21021;-91
2020/12/24 06:35:01;;;;;;;2.73;2.10;;;7.80;99.90;;;;;;5037905;28;20690;-91
2020/12/24 06:37:28;;;;;;;3.27;1.10;;;7.80;99.90;;;;;;5039040;28;21092;-91
2020/12/24 06:39:55;;;;;;;2.77;0.90;;;7.90;99.90;;;;;;5042716;28;21001;-92
2020/12/24 06:42:43;;;;;;;2.30;1.20;;;7.90;99.90;;;;;;5031865;28;20632;-91
2020/12/24 06:45:35;;;;;;;2.57;0.80;;;8.00;99.90;;;;;;5029844;28;20653;-90
2020/12/24 06:48:23;;;;;;;4.53;1.07;;;8.00;99.90;;;;;;5027232;28;20672;-91
2020/12/24 06:50:52;;;;;;;2.73;1.23;;;8.00;99.90;;;;;;5027289;28;20640;-90
2020/12/24 06:53:25;;;;;;;2.40;1.23;;;8.00;99.90;;;;;;5029298;28;21119;-91
2020/12/24 06:56:23;;;;;;;2.83;1.00;;;8.00;99.90;;;;;;5039877;28;20647;-91
2020/12/24 06:58:58;;;;;;;6.23;1.40;;;8.00;99.90;;;;;;5036734;28;21268;-92
2020/12/24 07:01:30;;;;;;;1.50;1.07;;;8.00;99.90;;;;;;5033107;28;20638;-91
2020/12/24 07:03:58;;;;;;;1.57;1.07;;;8.00;99.90;;;;;;5030981;28;20662;-90
2020/12/24 07:06:52;;;;;;;1.50;0.90;;;8.00;99.90;;;;;;5036694;28;20657;-91
2020/12/24 07:09:41;;;;;;;3.97;1.20;;;8.00;99.90;;;;;;5039700;28;20646;-93
2020/12/24 07:12:07;;;;;;;6.10;1.20;;;8.10;99.90;;;;;;5022711;28;20627;-90
2020/12/24 07:14:35;;;;;;;3.73;1.03;;;8.20;99.90;;;;;;5021915;28;20666;-85
2020/12/24 07:17:11;;;;;;;3.27;1.30;;;8.20;99.90;;;;;;5027616;28;20656;-90
2020/12/24 07:19:41;;;;;;;2.03;1.07;;;8.20;99.90;;;;;;5031848;28;20647;-89
2020/12/24 07:22:09;;;;;;;2.90;1.10;;;8.20;99.90;;;;;;5030650;28;20631;-89
2020/12/24 07:24:36;;;;;;;2.60;1.27;;;8.20;99.90;;;;;;5027781;28;20633;-88
2020/12/24 07:27:04;;;;;;;8.10;1.37;;;8.20;99.90;;;;;;5032371;28;20702;-89
2020/12/24 07:29:34;;;;;;;4.50;1.40;;;8.20;99.90;;;;;;5033101;28;20621;-89
2020/12/24 07:32:02;;;;;;;3.83;1.50;;;8.20;99.90;;;;;;5034267;28;20720;-89
2020/12/24 07:34:32;;;;;;;1.60;0.90;;;8.20;99.90;;;;;;5030738;28;20674;-89
2020/12/24 07:36:59;;;;;;;2.90;1.17;;;8.20;99.90;;;;;;5037227;28;20618;-89
2020/12/24 07:39:27;;;;;;;3.90;1.00;;;8.20;99.90;;;;;;5040371;28;20990;-89
2020/12/24 07:41:53;;;;;;;6.40;1.33;;;8.30;99.90;;;;;;5034508;28;20634;-89
2020/12/24 07:44:22;;;;;;;2.83;1.27;;;8.20;99.90;;;;;;5029699;28;20678;-89
2020/12/24 07:46:51;;;;;;;3.27;1.40;;;8.30;99.90;;;;;;5021615;28;20686;-89
2020/12/24 07:49:18;;;;;;;2.60;1.50;;;8.40;99.90;;;;;;5031022;28;20628;-89
2020/12/24 07:51:53;;;;;;;3.10;1.30;;;8.40;99.90;;;;;;5036333;28;20614;-89
2020/12/24 07:54:25;;;;;;;3.73;1.20;;;8.40;99.90;;;;;;5038222;28;21019;-89
2020/12/24 07:56:52;;;;;;;2.37;1.27;;;8.50;99.90;;;;;;5027008;28;20635;-89
2020/12/24 07:59:22;;;;;;;4.10;1.47;;;8.50;99.90;;;;;;5033813;28;20626;-88
2020/12/24 08:01:49;;;;;;;3.37;1.27;;;8.60;99.90;;;;;;5024689;28;21015;-89
2020/12/24 08:04:16;;;;;;;4.93;1.17;;;8.70;99.90;;;;;;5031048;28;20679;-88
2020/12/24 08:06:43;;;;;;;3.57;2.10;;;8.70;99.90;;;;;;5037896;28;20677;-89
2020/12/24 08:09:11;;;;;;;1.50;1.20;;;8.70;99.90;;;;;;5034176;28;20655;-89
2020/12/24 08:11:38;;;;;;;4.60;1.30;;;8.80;99.90;;;;;;5032199;28;20645;-88
2020/12/24 08:14:05;;;;;;;2.97;1.03;;;8.80;99.90;;;;;;5034559;28;21063;-89
2020/12/24 08:16:33;;;;;;;4.00;2.10;;;8.80;99.90;;;;;;5032258;28;20624;-89
2020/12/24 08:19:05;;;;;;;2.90;1.40;;;8.80;99.90;;;;;;5039070;28;20603;-88
2020/12/24 08:21:40;;;;;;;4.03;1.33;;;8.90;99.90;;;;;;5026771;28;20663;-89
2020/12/24 08:24:09;;;;;;;4.00;1.10;;;8.90;99.90;;;;;;5031037;28;20641;-88
2020/12/24 08:26:37;;;;;;;3.00;1.20;;;8.90;99.90;;;;;;5031629;28;20971;-88
2020/12/24 08:29:08;;;;;;;4.67;1.30;;;9.00;99.90;;;;;;5048666;28;20644;-88
2020/12/24 08:31:39;;;;;;;3.37;1.27;;;8.90;99.90;;;;;;5032910;28;20642;-88
2020/12/24 08:34:08;;;;;;;3.03;1.07;;;8.90;99.90;;;;;;5035629;28;20967;-89
2020/12/24 08:36:42;;;;;;;4.67;1.27;;;8.80;99.90;;;;;;5034869;28;20620;-88
2020/12/24 08:39:09;;;;;;;3.53;1.63;;;8.80;99.90;;;;;;5034039;28;20673;-89
2020/12/24 08:41:41;;;;;;;2.37;1.10;;;8.90;99.90;;;;;;5036187;28;21188;-89
2020/12/24 08:44:09;;;;;;;4.43;1.70;;;8.90;99.90;;;;;;5050978;28;20627;-89
2020/12/24 08:46:35;;;;;;;2.33;1.03;;;8.80;99.90;;;;;;5040994;28;20666;-88
2020/12/24 08:49:19;;;;;;;1.30;0.73;;;8.70;99.90;;;;;;5042773;28;20667;-88
2020/12/24 08:51:45;;;;;;;2.60;1.10;;;8.70;99.90;;;;;;5033798;28;20614;-91
2020/12/24 08:54:13;;;;;;;3.23;1.00;;;8.70;99.90;;;;;;5032636;28;20646;-89
2020/12/24 08:56:45;;;;;;;3.40;1.13;;;8.60;99.90;;;;;;5034541;28;20671;-90
2020/12/24 08:59:14;;;;;;;2.07;1.13;;;8.60;99.90;;;;;;5032013;28;21018;-90
2020/12/24 09:01:42;;;;;;;3.80;1.00;;;8.60;99.90;;;;;;5037947;28;20705;-89
2020/12/24 09:04:13;;;;;;;3.80;1.30;;;8.60;99.90;;;;;;5034699;28;20993;-89
2020/12/24 09:06:42;;;;;;;1.70;0.80;;;8.50;99.90;;;;;;5032169;28;21276;-88
2020/12/24 09:09:19;;;;;;;2.43;1.20;;;8.50;99.90;;;;;;5028269;28;20673;-91
2020/12/24 09:11:47;;;;;;;3.40;0.90;;;8.50;99.90;;;;;;5035990;28;20624;-90
2020/12/24 09:14:17;;;;;;;2.30;0.70;;;8.50;99.90;;;;;;5030672;28;20639;-91
2020/12/24 09:16:54;;;;;;;3.93;1.23;;;8.50;99.90;;;;;;5030715;28;20661;-90
2020/12/24 09:19:23;;;;;;;1.33;0.70;;;8.50;99.90;;;;;;5037672;28;20662;-93
2020/12/24 09:21:54;;;;;;;3.10;1.17;;;8.50;99.90;;;;;;5037674;28;20645;-91
2020/12/24 09:24:22;;;;;;;2.87;0.90;;;8.50;99.90;;;;;;5044256;28;21164;-93
2020/12/24 09:26:51;;;;;;;2.83;1.00;;;8.50;99.90;;;;;;5037636;28;20660;-91
2020/12/24 09:29:20;;;;;;;2.00;1.13;;;8.50;99.90;;;;;;5034379;28;20644;-90
2020/12/24 09:31:58;;;;;;;2.73;0.97;;;8.50;99.90;;;;;;5030114;28;20835;-93
2020/12/24 09:34:27;;;;;;;2.30;1.03;;;8.60;99.90;;;;;;5041637;28;20629;-93
2020/12/24 09:37:03;;;;;;;2.43;0.87;;;8.60;99.90;;;;;;5039815;28;20610;-88
2020/12/24 09:39:34;;;;;;;3.00;0.80;;;8.60;99.90;;;;;;5037616;28;20652;-91
2020/12/24 09:42:04;;;;;;;2.50;1.07;;;8.60;99.90;;;;;;5032436;28;20641;-90
2020/12/24 09:44:31;;;;;;;1.73;0.77;;;8.70;99.90;;;;;;5042205;28;21081;-90
2020/12/24 09:46:59;;;;;;;3.77;1.30;;;8.60;99.90;;;;;;5032428;28;20668;-91
2020/12/24 09:49:26;;;;;;;1.43;0.67;;;8.70;99.90;;;;;;5028525;28;20657;-90
2020/12/24 09:51:52;;;;;;;3.43;1.20;;;8.70;99.90;;;;;;5032796;28;20634;-90
2020/12/24 09:54:19;;;;;;;3.47;1.60;;;8.70;99.90;;;;;;5040904;28;20636;-90
2020/12/24 09:56:47;;;;;;;3.93;1.87;;;8.70;99.90;;;;;;5029165;28;20630;-90
2020/12/24 09:59:18;;;;;;;1.80;1.00;;;8.80;99.90;;;;;;5032035;28;21204;-89
2020/12/24 10:01:48;;;;;;;1.93;1.00;;;8.80;99.90;;;;;;5034745;28;20686;-90
2020/12/24 10:04:16;;;;;;;1.70;1.00;;;8.80;99.90;;;;;;5035339;28;21159;-91
2020/12/24 10:06:42;;;;;;;1.13;1.00;;;8.90;99.90;;;;;;5050928;28;20647;-89
2020/12/24 10:09:09;;;;;;;6.00;1.43;;;8.80;99.90;;;;;;5037265;28;20663;-89
2020/12/24 10:11:35;;;;;;;1.80;1.13;;;8.80;99.90;;;;;;5034590;28;20634;-91
2020/12/24 10:14:01;;;;;;;1.23;0.73;;;8.90;99.90;;;;;;5034491;28;20672;-89
2020/12/24 10:16:31;;;;;;;2.17;1.20;;;9.00;99.90;;;;;;5033398;28;20675;-92
2020/12/24 10:19:01;;;;;;;5.00;1.27;;;8.90;99.90;;;;;;5032875;28;20648;-89
2020/12/24 10:21:29;;;;;;;1.50;1.00;;;8.90;99.90;;;;;;5033296;28;20623;-90
2020/12/24 10:23:55;;;;;;;1.77;0.80;;;8.90;99.90;;;;;;5041829;28;20662;-90
2020/12/24 10:26:22;;;;;;;1.90;0.80;;;8.90;99.90;;;;;;5043621;28;21571;-88
2020/12/24 10:28:48;;;;;;;2.03;0.90;;;8.90;99.90;;;;;;5045047;28;20659;-90
2020/12/24 10:31:15;;;;;;;2.23;1.40;;;8.90;99.90;;;;;;5048896;28;20614;-90
2020/12/24 10:33:42;;;;;;;3.50;0.90;;;8.90;99.90;;;;;;5046318;28;20634;-89
2020/12/24 10:36:08;;;;;;;2.10;0.87;;;9.00;99.90;;;;;;5041615;28;20626;-89
2020/12/24 10:38:36;;;;;;;3.10;1.60;;;9.00;99.90;;;;;;5038633;28;20670;-88
2020/12/24 10:41:02;;;;;;;1.43;0.60;;;9.00;99.90;;;;;;5039998;28;20617;-88
2020/12/24 10:43:31;;;;;;;2.63;1.23;;;9.00;99.90;;;;;;5042022;28;20680;-89
2020/12/24 10:45:58;;;;;;;1.73;1.23;;;9.00;99.90;;;;;;5036070;28;20633;-89
2020/12/24 10:48:26;;;;;;;2.60;0.80;;;9.00;99.90;;;;;;5040518;28;20753;-90
2020/12/24 10:50:56;;;;;;;1.60;0.90;;;9.00;99.90;;;;;;5042848;28;21292;-90
2020/12/24 10:53:22;;;;;;;1.53;1.07;;;9.10;99.90;;;;;;5049220;28;21214;-90
2020/12/24 10:55:48;;;;;;;2.00;1.10;;;9.10;99.90;;;;;;5039828;28;20613;-89
2020/12/24 10:58:15;;;;;;;2.07;1.30;;;9.10;99.90;;;;;;5033586;28;20652;-89
2020/12/24 11:00:41;;;;;;;2.17;0.90;;;9.10;99.90;;;;;;5041108;28;21036;-90
2020/12/24 11:03:09;;;;;;;5.27;1.00;;;9.20;99.90;;;;;;5039780;28;20683;-89
2020/12/24 11:05:37;;;;;;;1.00;0.70;;;9.20;99.90;;;;;;5030051;28;20618;-89
2020/12/24 11:08:04;;;;;;;3.03;1.10;;;9.30;99.90;;;;;;5029087;28;20747;-89
2020/12/24 11:10:31;;;;;;;1.17;1.07;;;9.30;99.90;;;;;;5027951;28;20699;-89
2020/12/24 11:12:57;;;;;;;2.53;0.80;;;9.40;99.90;;;;;;5023510;28;20717;-89
2020/12/24 11:15:23;;;;;;;2.20;0.80;;;9.50;99.90;;;;;;5034593;28;20622;-89
2020/12/24 11:17:50;;;;;;;1.27;0.70;;;9.60;99.90;;;;;;5029961;28;21079;-88
2020/12/24 11:20:19;;;;;;;1.57;0.77;;;9.60;99.90;;;;;;5033140;28;20626;-89
2020/12/24 11:22:45;;;;;;;2.40;0.97;;;9.70;99.90;;;;;;5028054;28;20641;-89
2020/12/24 11:25:13;;;;;;;1.10;0.60;;;9.70;99.90;;;;;;5033438;28;20619;-88
2020/12/24 11:27:39;;;;;;;1.63;0.73;;;9.50;99.90;;;;;;5033245;28;20647;-89
2020/12/24 11:30:05;;;;;;;2.90;1.10;;;9.60;99.90;;;;;;5030299;28;20655;-87
2020/12/24 11:32:31;;;;;;;2.87;1.10;;;9.60;99.90;;;;;;5036073;28;20730;-88
2020/12/24 11:34:58;;;;;;;1.40;1.00;;;9.80;99.90;;;;;;5025891;28;20646;-88
2020/12/24 11:37:24;;;;;;;1.93;0.90;;;9.90;99.90;;;;;;5027736;28;20623;-88
2020/12/24 11:39:51;;;;;;;1.60;0.80;;;9.90;99.90;;;;;;5032693;28;20887;-89
2020/12/24 11:42:20;;;;;;;2.20;0.60;;;9.80;99.90;;;;;;5027220;28;20623;-88
2020/12/24 11:44:46;;;;;;;0.90;0.50;;;9.80;99.90;;;;;;5029575;28;20671;-89
2020/12/24 11:47:13;;;;;;;1.17;0.60;;;10.00;99.90;;;;;;5024046;28;21237;-90
2020/12/24 11:49:40;;;;;;;1.30;0.80;;;9.90;99.90;;;;;;5022443;28;20673;-91
2020/12/24 11:52:07;;;;;;;0.73;0.50;;;9.90;99.90;;;;;;5025084;28;20647;-90
2020/12/24 11:54:34;;;;;;;0.60;0.40;;;9.90;99.90;;;;;;5033098;28;20621;-89
2020/12/24 11:57:00;;;;;;;0.80;0.43;;;10.20;99.90;;;;;;5029235;28;20633;-89
2020/12/24 11:59:28;;;;;;;0.90;0.40;;;10.50;99.90;;;;;;5040486;28;20667;-89
2020/12/24 12:01:56;;;;;;;1.87;0.80;;;11.10;99.90;;;;;;5028902;28;20633;-88
2020/12/24 12:04:22;;;;;;;0.70;0.50;;;11.90;99.90;;;;;;5027576;28;21229;-89
2020/12/24 12:06:50;;;;;;;2.10;0.60;;;12.10;99.40;;;;;;5028550;28;20673;-88
2020/12/24 12:09:16;;;;;;;2.67;0.70;;;12.70;98.50;;;;;;5038664;28;20675;-89
2020/12/24 12:11:42;;;;;;;1.00;0.50;;;13.10;97.40;;;;;;5036991;28;20791;-90
2020/12/24 12:14:10;;;;;;;2.30;0.73;;;13.00;97.10;;;;;;5033549;28;21158;-89
2020/12/24 12:16:37;;;;;;;0.90;0.53;;;12.90;97.70;;;;;;5029438;28;21080;-90
2020/12/24 12:19:04;;;;;;;1.00;0.50;;;12.80;97.70;;;;;;5032459;28;20655;-89
2020/12/24 12:21:34;;;;;;;0.77;0.43;;;12.80;97.30;;;;;;5029312;28;21096;-89
2020/12/24 12:24:00;;;;;;;2.20;0.50;;;12.60;97.90;;;;;;5026202;28;20655;-90
2020/12/24 12:26:26;;;;;;;0.90;0.47;;;12.70;97.80;;;;;;5030049;28;20631;-88
2020/12/24 12:28:53;;;;;;;2.60;0.50;;;13.00;97.40;;;;;;5026789;28;20659;-90
2020/12/24 12:31:20;;;;;;;1.37;0.50;;;13.40;96.20;;;;;;5030714;28;20661;-89
2020/12/24 12:33:48;;;;;;;0.50;0.37;;;12.60;97.00;;;;;;5021699;28;20678;-89
2020/12/24 12:36:15;;;;;;;0.70;0.43;;;12.60;97.80;;;;;;5029130;28;20651;-88
2020/12/24 12:38:41;;;;;;;0.70;0.50;;;12.20;97.80;;;;;;5031748;28;20768;-89
2020/12/24 12:41:07;;;;;;;0.83;0.50;;;12.20;98.70;;;;;;5032026;28;20642;-89
2020/12/24 12:43:34;;;;;;;1.87;0.50;;;12.40;98.50;;;;;;5033069;28;20637;-89
2020/12/24 12:46:00;;;;;;;1.00;0.40;;;12.50;98.20;;;;;;5031050;28;20641;-88
2020/12/24 12:48:26;;;;;;;0.63;0.30;;;12.00;98.20;;;;;;5037566;28;20671;-89
2020/12/24 12:50:53;;;;;;;0.70;0.57;;;12.00;98.50;;;;;;5026743;28;21234;-89
2020/12/24 12:53:20;;;;;;;0.60;0.47;;;12.20;98.70;;;;;;5027067;28;20626;-89
2020/12/24 12:55:46;;;;;;;0.70;0.40;;;12.40;97.80;;;;;;5030872;28;20654;-89
2020/12/24 12:58:12;;;;;;;0.50;0.47;;;12.80;97.70;;;;;;5034682;28;20737;-89
2020/12/24 13:00:39;;;;;;;0.67;0.40;;;13.30;97.10;;;;;;5032166;28;20638;-90
2020/12/24 13:03:05;;;;;;;0.77;0.63;;;13.20;96.40;;;;;;5028708;28;20676;-89
2020/12/24 13:05:33;;;;;;;1.10;0.97;;;12.70;97.20;;;;;;5028158;28;20627;-89